Terminal Aerodrome Forecast
Issued by NWS

Home | Current Version | Previous Version | Text Only | Print | Product List | Glossary On
Versions: 1 2 3 4 5 6 7 8 9 10 11 12 13 14 15 16
759
FTUS42 KFFC 211728
TAFRYY
TAF
KRYY 211728Z 2118/2218 32004KT P6SM SCT050
     FM212100 32005KT P6SM VCSH BKN060
     FM220300 VRB03KT P6SM FEW060 SCT150
     FM221600 11004KT P6SM FEW045=

USA.gov is the U.S. government's official web portal to all federal, state and local government web resources and services.